Aviation Digital Data Service (ADDS)

Output produced by METARs form (1307 UTC 15 July 2020)
found at http://www.aviationweather.gov/metar/data/
 
METAR text: ROAH 151300Z 19014KT 9999 FEW015 BKN/// 29/27 Q1008
Conditions at: ROAH (NAHA (CIV/JASDF), JP) observed 1300 UTC 15 July 2020
Temperature: 29.0°C (84°F)
Dewpoint: 27.0°C (81°F) [RH = 89%]
Pressure (altimeter): 29.76 inches Hg (1008.0 mb)
Winds: from the S (190 degrees) at 16 MPH (14 knots; 7.2 m/s)
Visibility: 6 or more miles (10+ km)
Ceiling: at least 12,000 feet AGL
Clouds: few clouds at 1500 feet AGL
Weather: no significant weather observed at this time

METAR text: ROAH 151230Z 19012KT 9999 FEW017 SCT025 BKN/// 29/28 Q1008
Conditions at: ROAH (NAHA (CIV/JASDF), JP) observed 1230 UTC 15 July 2020
Temperature: 29.0°C (84°F)
Dewpoint: 28.0°C (82°F) [RH = 94%]
Pressure (altimeter): 29.76 inches Hg (1008.0 mb)
Winds: from the S (190 degrees) at 14 MPH (12 knots; 6.2 m/s)
Visibility: 6 or more miles (10+ km)
Ceiling: at least 12,000 feet AGL
Clouds: few clouds at 1700 feet AGL
scattered clouds at 2500 feet AGL
Weather: no significant weather observed at this time

METAR text: ROAH 151200Z 21008KT 9999 FEW017 FEW025CB SCT030 BKN/// 29/27 Q1007
Conditions at: ROAH (NAHA (CIV/JASDF), JP) observed 1200 UTC 15 July 2020
Temperature: 29.0°C (84°F)
Dewpoint: 27.0°C (81°F) [RH = 89%]
Pressure (altimeter): 29.73 inches Hg (1007.0 mb)
Winds: from the SSW (210 degrees) at 9 MPH (8 knots; 4.1 m/s)
Visibility: 6 or more miles (10+ km)
Ceiling: at least 12,000 feet AGL
Clouds: few clouds at 1700 feet AGL
few clouds at 2500 feet AGL
scattered clouds at 3000 feet AGL
Weather: no significant weather observed at this time

METAR text: ROAH 151130Z 21006KT 180V250 9999 -SHRA FEW008 SCT020 FEW025CB BKN035 29/27 Q1007 RMK 1ST008 3CU020 1CB025 5CU035 A2976 LIGHTNING NE
Conditions at: ROAH (NAHA (CIV/JASDF), JP) observed 1130 UTC 15 July 2020
Temperature: 29.0°C (84°F)
Dewpoint: 27.0°C (81°F) [RH = 89%]
Pressure (altimeter): 29.73 inches Hg (1007.0 mb)
Winds: from the SSW (210 degrees) at 7 MPH (6 knots; 3.1 m/s)
Visibility: 6 or more miles (10+ km)
Ceiling: 3500 feet AGL
Clouds: few clouds at 800 feet AGL
scattered clouds at 2000 feet AGL
few clouds at 2500 feet AGL
broken clouds at 3500 feet AGL
Weather: -SHRA  (light rain showers)

METAR text: ROAH 151123Z 25006KT 200V280 9999 -TSRA FEW008 SCT020 FEW025CB BKN070 28/27 Q1007 RMK 1ST008 3CU020 2CB025 5AC070 A2975 FBL TS 15KM NE MOV NE
Conditions at: ROAH (NAHA (CIV/JASDF), JP) observed 1123 UTC 15 July 2020
Temperature: 28.0°C (82°F)
Dewpoint: 27.0°C (81°F) [RH = 94%]
Pressure (altimeter): 29.73 inches Hg (1007.0 mb)
Winds: from the WSW (250 degrees) at 7 MPH (6 knots; 3.1 m/s)
Visibility: 6 or more miles (10+ km)
Ceiling: 7000 feet AGL
Clouds: few clouds at 800 feet AGL
scattered clouds at 2000 feet AGL
few clouds at 2500 feet AGL
broken clouds at 7000 feet AGL
Weather: -TSRA  (light rain associated with thunderstorm(s))

METAR text: ROAH 151102Z 25006KT 200V290 9999 +TSRA FEW006 SCT013 BKN020 FEW025CB 28/26 Q1007 RMK 1ST006 3CU013 6CU020 2CB025 A2976 FBL TS 5KM NE MOV NE
Conditions at: ROAH (NAHA (CIV/JASDF), JP) observed 1102 UTC 15 July 2020
Temperature: 28.0°C (82°F)
Dewpoint: 26.0°C (79°F) [RH = 89%]
Pressure (altimeter): 29.73 inches Hg (1007.0 mb)
Winds: from the WSW (250 degrees) at 7 MPH (6 knots; 3.1 m/s)
Visibility: 6 or more miles (10+ km)
Ceiling: 2000 feet AGL
Clouds: few clouds at 600 feet AGL
scattered clouds at 1300 feet AGL
broken clouds at 2000 feet AGL
few clouds at 2500 feet AGL
Weather: +TSRA  (heavy rain associated with thunderstorm(s))

METAR text: ROAH 151100Z 25006KT 200V290 9999 R18L/1000VP2000U R18R/P2000N +TSRA FEW006 SCT013 BKN020 FEW025CB 28/26 Q1007 RMK 2ST006 3CU013 6CU020 2CB025 A2976 FBL TS 5KM NE MOV NE
Conditions at: ROAH (NAHA (CIV/JASDF), JP) observed 1100 UTC 15 July 2020
Temperature: 28.0°C (82°F)
Dewpoint: 26.0°C (79°F) [RH = 89%]
Pressure (altimeter): 29.73 inches Hg (1007.0 mb)
Winds: from the WSW (250 degrees) at 7 MPH (6 knots; 3.1 m/s)
Visibility: 6 or more miles (10+ km)
Ceiling: 2000 feet AGL
Clouds: few clouds at 600 feet AGL
scattered clouds at 1300 feet AGL
broken clouds at 2000 feet AGL
few clouds at 2500 feet AGL
Weather: +TSRA  (heavy rain associated with thunderstorm(s))

METAR text: ROAH 151050Z 28013G25KT 260V320 2000 R18L/1000VP2000D R18R/1000VP2000U +SHRA FEW008 SCT013 BKN020 SCT025TCU 27/26 Q1007 RMK 2ST008 3CU013 6CU020 3TCU025 A2975 TCU OHD MOV NE RI++
Conditions at: ROAH (NAHA (CIV/JASDF), JP) observed 1050 UTC 15 July 2020
Temperature: 27.0°C (81°F)
Dewpoint: 26.0°C (79°F) [RH = 94%]
Pressure (altimeter): 29.73 inches Hg (1007.0 mb)
Winds: from the W (280 degrees) at 15 MPH (13 knots; 6.7 m/s)
gusting to 29 MPH (25 knots; 12.9 m/s)
Visibility: 1.24 miles (2.00 km)
Ceiling: 2000 feet AGL
Clouds: few clouds at 800 feet AGL
scattered clouds at 1300 feet AGL
broken clouds at 2000 feet AGL
scattered clouds at 2500 feet AGL
Weather: +SHRA  (heavy rain showers)

METAR text: ROAH 151049Z 28014G25KT 260V320 2000 R18L/1000VP2000D R18R/1000V1700U +SHRA FEW008 SCT013 BKN020 SCT025TCU 27/26 Q1007 RMK 2ST008 3CU013 6CU020 3TCU025 A2975 TCU OHD MOV NE RI++
Conditions at: ROAH (NAHA (CIV/JASDF), JP) observed 1049 UTC 15 July 2020
Temperature: 27.0°C (81°F)
Dewpoint: 26.0°C (79°F) [RH = 94%]
Pressure (altimeter): 29.73 inches Hg (1007.0 mb)
Winds: from the W (280 degrees) at 16 MPH (14 knots; 7.2 m/s)
gusting to 29 MPH (25 knots; 12.9 m/s)
Visibility: 1.24 miles (2.00 km)
Ceiling: 2000 feet AGL
Clouds: few clouds at 800 feet AGL
scattered clouds at 1300 feet AGL
broken clouds at 2000 feet AGL
scattered clouds at 2500 feet AGL
Weather: +SHRA  (heavy rain showers)

METAR text: ROAH 151047Z 29011G21KT 3000 R18L/1000VP2000D R18R/1000VP2000N +SHRA FEW008 SCT013 BKN020 SCT025TCU 27/25 Q1007 RMK 2ST008 3CU013 6CU020 3TCU025 A2975 TCU OHD MOV NE RI++
Conditions at: ROAH (NAHA (CIV/JASDF), JP) observed 1047 UTC 15 July 2020
Temperature: 27.0°C (81°F)
Dewpoint: 25.0°C (77°F) [RH = 89%]
Pressure (altimeter): 29.73 inches Hg (1007.0 mb)
Winds: from the WNW (290 degrees) at 13 MPH (11 knots; 5.7 m/s)
gusting to 24 MPH (21 knots; 10.8 m/s)
Visibility: 1.86 miles (2.99 km)
Ceiling: 2000 feet AGL
Clouds: few clouds at 800 feet AGL
scattered clouds at 1300 feet AGL
broken clouds at 2000 feet AGL
scattered clouds at 2500 feet AGL
Weather: +SHRA  (heavy rain showers)

METAR text: ROAH 151045Z 29011KT 250V320 3000 R18L/1000VP2000D R18R/1000VP2000D +SHRA FEW008 SCT013 BKN020 SCT025TCU 28/26 Q1007 RMK 2ST008 3CU013 6CU020 3TCU025 A2975 TCU OHD MOV NE RI++
Conditions at: ROAH (NAHA (CIV/JASDF), JP) observed 1045 UTC 15 July 2020
Temperature: 28.0°C (82°F)
Dewpoint: 26.0°C (79°F) [RH = 89%]
Pressure (altimeter): 29.73 inches Hg (1007.0 mb)
Winds: from the WNW (290 degrees) at 13 MPH (11 knots; 5.7 m/s)
Visibility: 1.86 miles (2.99 km)
Ceiling: 2000 feet AGL
Clouds: few clouds at 800 feet AGL
scattered clouds at 1300 feet AGL
broken clouds at 2000 feet AGL
scattered clouds at 2500 feet AGL
Weather: +SHRA  (heavy rain showers)

METAR text: ROAH 151042Z 23012KT 3000 R18L/1000VP2000D R18R/1000VP2000D +SHRA FEW008 SCT013 BKN020 SCT025TCU 28/26 Q1007 RMK 2ST008 3CU013 6CU020 3TCU025 A2975 TCU OHD MOV NE RI++
Conditions at: ROAH (NAHA (CIV/JASDF), JP) observed 1042 UTC 15 July 2020
Temperature: 28.0°C (82°F)
Dewpoint: 26.0°C (79°F) [RH = 89%]
Pressure (altimeter): 29.73 inches Hg (1007.0 mb)
Winds: from the SW (230 degrees) at 14 MPH (12 knots; 6.2 m/s)
Visibility: 1.86 miles (2.99 km)
Ceiling: 2000 feet AGL
Clouds: few clouds at 800 feet AGL
scattered clouds at 1300 feet AGL
broken clouds at 2000 feet AGL
scattered clouds at 2500 feet AGL
Weather: +SHRA  (heavy rain showers)

METAR text: ROAH 151030Z 20009KT 9999 +SHRA FEW009 FEW025TCU SCT035 BKN050 30/28 Q1007 RMK 1CU009 2TCU025 4CU035 6SC050 A2974 3000N TCU OHD MOV NE
Conditions at: ROAH (NAHA (CIV/JASDF), JP) observed 1030 UTC 15 July 2020
Temperature: 30.0°C (86°F)
Dewpoint: 28.0°C (82°F) [RH = 89%]
Pressure (altimeter): 29.73 inches Hg (1007.0 mb)
Winds: from the SSW (200 degrees) at 10 MPH (9 knots; 4.6 m/s)
Visibility: 6 or more miles (10+ km)
Ceiling: 5000 feet AGL
Clouds: few clouds at 900 feet AGL
few clouds at 2500 feet AGL
scattered clouds at 3500 feet AGL
broken clouds at 5000 feet AGL
Weather: +SHRA  (heavy rain showers)

METAR text: ROAH 151013Z 20010KT 170V240 9999 +SHRA FEW009 FEW025TCU SCT035 BKN045 30/28 Q1006 RMK 1CU009 2TCU025 3CU035 6SC045 A2973 TCU 8KM W MOV NE
Conditions at: ROAH (NAHA (CIV/JASDF), JP) observed 1013 UTC 15 July 2020
Temperature: 30.0°C (86°F)
Dewpoint: 28.0°C (82°F) [RH = 89%]
Pressure (altimeter): 29.70 inches Hg (1006.0 mb)
Winds: from the SSW (200 degrees) at 12 MPH (10 knots; 5.1 m/s)
Visibility: 6 or more miles (10+ km)
Ceiling: 4500 feet AGL
Clouds: few clouds at 900 feet AGL
few clouds at 2500 feet AGL
scattered clouds at 3500 feet AGL
broken clouds at 4500 feet AGL
Weather: +SHRA  (heavy rain showers)

METAR text: ROAH 151000Z 21010KT 9999 -SHRA FEW009 SCT035 BKN/// 29/27 Q1007 RMK 1CU009 4CU035 A2974
Conditions at: ROAH (NAHA (CIV/JASDF), JP) observed 1000 UTC 15 July 2020
Temperature: 29.0°C (84°F)
Dewpoint: 27.0°C (81°F) [RH = 89%]
Pressure (altimeter): 29.73 inches Hg (1007.0 mb)
Winds: from the SSW (210 degrees) at 12 MPH (10 knots; 5.1 m/s)
Visibility: 6 or more miles (10+ km)
Ceiling: at least 12,000 feet AGL
Clouds: few clouds at 900 feet AGL
scattered clouds at 3500 feet AGL
Weather: -SHRA  (light rain showers)

METAR text: ROAH 150943Z 21015G25KT 180V240 9999 R18L/P2000N R18R/P2000N +SHRA FEW009 FEW025TCU SCT050 BKN/// 29/27 Q1006 RMK 1CU009 2TCU025 3SC050 A2973 4000S TCU OHD MOV NE
Conditions at: ROAH (NAHA (CIV/JASDF), JP) observed 0943 UTC 15 July 2020
Temperature: 29.0°C (84°F)
Dewpoint: 27.0°C (81°F) [RH = 89%]
Pressure (altimeter): 29.70 inches Hg (1006.0 mb)
Winds: from the SSW (210 degrees) at 17 MPH (15 knots; 7.7 m/s)
gusting to 29 MPH (25 knots; 12.9 m/s)
Visibility: 6 or more miles (10+ km)
Ceiling: at least 12,000 feet AGL
Clouds: few clouds at 900 feet AGL
few clouds at 2500 feet AGL
scattered clouds at 5000 feet AGL
Weather: +SHRA  (heavy rain showers)

METAR text: ROAH 150930Z 21013KT 9999 +SHRA FEW010 FEW025TCU SCT050 BKN/// 30/28 Q1006
Conditions at: ROAH (NAHA (CIV/JASDF), JP) observed 0930 UTC 15 July 2020
Temperature: 30.0°C (86°F)
Dewpoint: 28.0°C (82°F) [RH = 89%]
Pressure (altimeter): 29.70 inches Hg (1006.0 mb)
Winds: from the SSW (210 degrees) at 15 MPH (13 knots; 6.7 m/s)
Visibility: 6 or more miles (10+ km)
Ceiling: at least 12,000 feet AGL
Clouds: few clouds at 1000 feet AGL
few clouds at 2500 feet AGL
scattered clouds at 5000 feet AGL
Weather: +SHRA  (heavy rain showers)

METAR text: ROAH 150900Z 22013KT 9999 -SHRA FEW010 FEW025TCU SCT030 BKN/// 30/27 Q1006 RMK 1CU010 2TCU025 4CU030 A2972 TCU 10KM NE MOV NE
Conditions at: ROAH (NAHA (CIV/JASDF), JP) observed 0900 UTC 15 July 2020
Temperature: 30.0°C (86°F)
Dewpoint: 27.0°C (81°F) [RH = 84%]
Pressure (altimeter): 29.70 inches Hg (1006.0 mb)
Winds: from the SW (220 degrees) at 15 MPH (13 knots; 6.7 m/s)
Visibility: 6 or more miles (10+ km)
Ceiling: at least 12,000 feet AGL
Clouds: few clouds at 1000 feet AGL
few clouds at 2500 feet AGL
scattered clouds at 3000 feet AGL
Weather: -SHRA  (light rain showers)

METAR text: ROAH 150848Z 21017G27KT 9999 R18L/P2000N R18R/P2000N +SHRA FEW010 SCT025TCU BKN030 29/26 Q1006 RMK 2CU010 3TCU025 5CU030 A2972 TCU OHD MOV NE
Conditions at: ROAH (NAHA (CIV/JASDF), JP) observed 0848 UTC 15 July 2020
Temperature: 29.0°C (84°F)
Dewpoint: 26.0°C (79°F) [RH = 84%]
Pressure (altimeter): 29.70 inches Hg (1006.0 mb)
Winds: from the SSW (210 degrees) at 20 MPH (17 knots; 8.7 m/s)
gusting to 31 MPH (27 knots; 13.9 m/s)
Visibility: 6 or more miles (10+ km)
Ceiling: 3000 feet AGL
Clouds: few clouds at 1000 feet AGL
scattered clouds at 2500 feet AGL
broken clouds at 3000 feet AGL
Weather: +SHRA  (heavy rain showers)

METAR text: ROAH 150844Z 21021KT 9999 R18L/P2000N R18R/P2000N +SHRA FEW010 SCT025TCU BKN030 30/28 Q1006 RMK 2CU010 3TCU025 5CU030 A2972 4000SW TCU OHD MOV NE
Conditions at: ROAH (NAHA (CIV/JASDF), JP) observed 0844 UTC 15 July 2020
Temperature: 30.0°C (86°F)
Dewpoint: 28.0°C (82°F) [RH = 89%]
Pressure (altimeter): 29.70 inches Hg (1006.0 mb)
Winds: from the SSW (210 degrees) at 24 MPH (21 knots; 10.8 m/s)
Visibility: 6 or more miles (10+ km)
Ceiling: 3000 feet AGL
Clouds: few clouds at 1000 feet AGL
scattered clouds at 2500 feet AGL
broken clouds at 3000 feet AGL
Weather: +SHRA  (heavy rain showers)

METAR text: ROAH 150842Z 20011KT 9999 R18L/P2000N R18R/P2000N +SHRA FEW010 SCT025TCU BKN030 31/28 Q1006 RMK 2CU010 3TCU025 5CU030 A2972 4000SW TCU OHD MOV NE
Conditions at: ROAH (NAHA (CIV/JASDF), JP) observed 0842 UTC 15 July 2020
Temperature: 31.0°C (88°F)
Dewpoint: 28.0°C (82°F) [RH = 84%]
Pressure (altimeter): 29.70 inches Hg (1006.0 mb)
Winds: from the SSW (200 degrees) at 13 MPH (11 knots; 5.7 m/s)
Visibility: 6 or more miles (10+ km)
Ceiling: 3000 feet AGL
Clouds: few clouds at 1000 feet AGL
scattered clouds at 2500 feet AGL
broken clouds at 3000 feet AGL
Weather: +SHRA  (heavy rain showers)

METAR text: ROAH 150830Z 19010KT 9999 SHRA FEW015 FEW025TCU SCT040 BKN/// 31/28 Q1006
Conditions at: ROAH (NAHA (CIV/JASDF), JP) observed 0830 UTC 15 July 2020
Temperature: 31.0°C (88°F)
Dewpoint: 28.0°C (82°F) [RH = 84%]
Pressure (altimeter): 29.70 inches Hg (1006.0 mb)
Winds: from the S (190 degrees) at 12 MPH (10 knots; 5.1 m/s)
Visibility: 6 or more miles (10+ km)
Ceiling: at least 12,000 feet AGL
Clouds: few clouds at 1500 feet AGL
few clouds at 2500 feet AGL
scattered clouds at 4000 feet AGL
Weather: SHRA  (rain showers)

METAR text: ROAH 150819Z 21011KT 9999 SHRA FEW015 FEW025TCU SCT035 BKN/// 30/27 Q1006 RMK 1CU015 2TCU025 3CU035 A2972 TCU 12KM W MOV NE
Conditions at: ROAH (NAHA (CIV/JASDF), JP) observed 0819 UTC 15 July 2020
Temperature: 30.0°C (86°F)
Dewpoint: 27.0°C (81°F) [RH = 84%]
Pressure (altimeter): 29.70 inches Hg (1006.0 mb)
Winds: from the SSW (210 degrees) at 13 MPH (11 knots; 5.7 m/s)
Visibility: 6 or more miles (10+ km)
Ceiling: at least 12,000 feet AGL
Clouds: few clouds at 1500 feet AGL
few clouds at 2500 feet AGL
scattered clouds at 3500 feet AGL
Weather: SHRA  (rain showers)

METAR text: ROAH 150800Z 21014KT 9999 -SHRA FEW015 SCT030 BKN/// 31/27 Q1006 RMK 1CU015 3CU030 A2971
Conditions at: ROAH (NAHA (CIV/JASDF), JP) observed 0800 UTC 15 July 2020
Temperature: 31.0°C (88°F)
Dewpoint: 27.0°C (81°F) [RH = 79%]
Pressure (altimeter): 29.70 inches Hg (1006.0 mb)
Winds: from the SSW (210 degrees) at 16 MPH (14 knots; 7.2 m/s)
Visibility: 6 or more miles (10+ km)
Ceiling: at least 12,000 feet AGL
Clouds: few clouds at 1500 feet AGL
scattered clouds at 3000 feet AGL
Weather: -SHRA  (light rain showers)

METAR text: ROAH 150730Z 21012KT 9999 -SHRA FEW015 FEW025TCU BKN/// 31/28 Q1006
Conditions at: ROAH (NAHA (CIV/JASDF), JP) observed 0730 UTC 15 July 2020
Temperature: 31.0°C (88°F)
Dewpoint: 28.0°C (82°F) [RH = 84%]
Pressure (altimeter): 29.70 inches Hg (1006.0 mb)
Winds: from the SSW (210 degrees) at 14 MPH (12 knots; 6.2 m/s)
Visibility: 6 or more miles (10+ km)
Ceiling: at least 12,000 feet AGL
Clouds: few clouds at 1500 feet AGL
few clouds at 2500 feet AGL
Weather: -SHRA  (light rain showers)

METAR text: ROAH 150700Z 21012KT 9999 FEW020 FEW025TCU BKN/// 31/28 Q1006 RMK 2CU020 1TCU025 A2971 TCU N
Conditions at: ROAH (NAHA (CIV/JASDF), JP) observed 0700 UTC 15 July 2020
Temperature: 31.0°C (88°F)
Dewpoint: 28.0°C (82°F) [RH = 84%]
Pressure (altimeter): 29.70 inches Hg (1006.0 mb)
Winds: from the SSW (210 degrees) at 14 MPH (12 knots; 6.2 m/s)
Visibility: 6 or more miles (10+ km)
Ceiling: at least 12,000 feet AGL
Clouds: few clouds at 2000 feet AGL
few clouds at 2500 feet AGL
Weather: no significant weather observed at this time

METAR text: ROAH 150630Z 21013KT 9999 FEW020 FEW025TCU BKN/// 32/28 Q1006
Conditions at: ROAH (NAHA (CIV/JASDF), JP) observed 0630 UTC 15 July 2020
Temperature: 32.0°C (90°F)
Dewpoint: 28.0°C (82°F) [RH = 80%]
Pressure (altimeter): 29.70 inches Hg (1006.0 mb)
Winds: from the SSW (210 degrees) at 15 MPH (13 knots; 6.7 m/s)
Visibility: 6 or more miles (10+ km)
Ceiling: at least 12,000 feet AGL
Clouds: few clouds at 2000 feet AGL
few clouds at 2500 feet AGL
Weather: no significant weather observed at this time

METAR text: ROAH 150600Z 21013KT 9999 -SHRA FEW015 FEW025TCU SCT070 BKN/// 31/28 Q1006
Conditions at: ROAH (NAHA (CIV/JASDF), JP) observed 0600 UTC 15 July 2020
Temperature: 31.0°C (88°F)
Dewpoint: 28.0°C (82°F) [RH = 84%]
Pressure (altimeter): 29.70 inches Hg (1006.0 mb)
Winds: from the SSW (210 degrees) at 15 MPH (13 knots; 6.7 m/s)
Visibility: 6 or more miles (10+ km)
Ceiling: at least 12,000 feet AGL
Clouds: few clouds at 1500 feet AGL
few clouds at 2500 feet AGL
scattered clouds at 7000 feet AGL
Weather: -SHRA  (light rain showers)

METAR text: ROAH 150530Z 20010KT 9999 FEW015 SCT070 BKN/// 31/28 Q1006
Conditions at: ROAH (NAHA (CIV/JASDF), JP) observed 0530 UTC 15 July 2020
Temperature: 31.0°C (88°F)
Dewpoint: 28.0°C (82°F) [RH = 84%]
Pressure (altimeter): 29.70 inches Hg (1006.0 mb)
Winds: from the SSW (200 degrees) at 12 MPH (10 knots; 5.1 m/s)
Visibility: 6 or more miles (10+ km)
Ceiling: at least 12,000 feet AGL
Clouds: few clouds at 1500 feet AGL
scattered clouds at 7000 feet AGL
Weather: no significant weather observed at this time

METAR text: ROAH 150500Z 21012KT 9999 FEW015 FEW025TCU BKN/// 31/27 Q1006 RMK 1CU015 1TCU025 A2972 TCU N
Conditions at: ROAH (NAHA (CIV/JASDF), JP) observed 0500 UTC 15 July 2020
Temperature: 31.0°C (88°F)
Dewpoint: 27.0°C (81°F) [RH = 79%]
Pressure (altimeter): 29.70 inches Hg (1006.0 mb)
Winds: from the SSW (210 degrees) at 14 MPH (12 knots; 6.2 m/s)
Visibility: 6 or more miles (10+ km)
Ceiling: at least 12,000 feet AGL
Clouds: few clouds at 1500 feet AGL
few clouds at 2500 feet AGL
Weather: no significant weather observed at this time

METAR text: ROAH 150438Z 21014KT 9999 VCSH FEW015 FEW025TCU BKN/// 30/26 Q1006 RMK 1CU015 2TCU025 A2973 TCU FM 10KM NE TO 12KM E MOV NE
Conditions at: ROAH (NAHA (CIV/JASDF), JP) observed 0438 UTC 15 July 2020
Temperature: 30.0°C (86°F)
Dewpoint: 26.0°C (79°F) [RH = 79%]
Pressure (altimeter): 29.70 inches Hg (1006.0 mb)
Winds: from the SSW (210 degrees) at 16 MPH (14 knots; 7.2 m/s)
Visibility: 6 or more miles (10+ km)
Ceiling: at least 12,000 feet AGL
Clouds: few clouds at 1500 feet AGL
few clouds at 2500 feet AGL
Weather: VCSH  (showers in vicinity)

METAR text: ROAH 150430Z 21014KT 9999 +SHRA FEW015 FEW025TCU BKN/// 30/27 Q1006
Conditions at: ROAH (NAHA (CIV/JASDF), JP) observed 0430 UTC 15 July 2020
Temperature: 30.0°C (86°F)
Dewpoint: 27.0°C (81°F) [RH = 84%]
Pressure (altimeter): 29.70 inches Hg (1006.0 mb)
Winds: from the SSW (210 degrees) at 16 MPH (14 knots; 7.2 m/s)
Visibility: 6 or more miles (10+ km)
Ceiling: at least 12,000 feet AGL
Clouds: few clouds at 1500 feet AGL
few clouds at 2500 feet AGL
Weather: +SHRA  (heavy rain showers)

METAR text: ROAH 150413Z 22015KT 9999 +SHRA FEW015 FEW025TCU BKN/// 31/27 Q1007 RMK 1CU015 2TCU025 A2974 TCU 8KM S-SW MOV NE
Conditions at: ROAH (NAHA (CIV/JASDF), JP) observed 0413 UTC 15 July 2020
Temperature: 31.0°C (88°F)
Dewpoint: 27.0°C (81°F) [RH = 79%]
Pressure (altimeter): 29.73 inches Hg (1007.0 mb)
Winds: from the SW (220 degrees) at 17 MPH (15 knots; 7.7 m/s)
Visibility: 6 or more miles (10+ km)
Ceiling: at least 12,000 feet AGL
Clouds: few clouds at 1500 feet AGL
few clouds at 2500 feet AGL
Weather: +SHRA  (heavy rain showers)

METAR text: ROAH 150400Z 21016KT 9999 VCSH FEW015 FEW025TCU BKN060 BKN/// 31/28 Q1007 RMK 1CU015 1TCU025 5SC060 A2974 TCU 18KM NE AND 20KM NW MOV NE
Conditions at: ROAH (NAHA (CIV/JASDF), JP) observed 0400 UTC 15 July 2020
Temperature: 31.0°C (88°F)
Dewpoint: 28.0°C (82°F) [RH = 84%]
Pressure (altimeter): 29.73 inches Hg (1007.0 mb)
Winds: from the SSW (210 degrees) at 18 MPH (16 knots; 8.2 m/s)
Visibility: 6 or more miles (10+ km)
Ceiling: 6000 feet AGL
Clouds: few clouds at 1500 feet AGL
few clouds at 2500 feet AGL
broken clouds at 6000 feet AGL
Weather: VCSH  (showers in vicinity)

METAR text: ROAH 150330Z 21016KT 9999 -SHRA FEW012 FEW025TCU BKN050 BKN/// 31/27 Q1007
Conditions at: ROAH (NAHA (CIV/JASDF), JP) observed 0330 UTC 15 July 2020
Temperature: 31.0°C (88°F)
Dewpoint: 27.0°C (81°F) [RH = 79%]
Pressure (altimeter): 29.73 inches Hg (1007.0 mb)
Winds: from the SSW (210 degrees) at 18 MPH (16 knots; 8.2 m/s)
Visibility: 6 or more miles (10+ km)
Ceiling: 5000 feet AGL
Clouds: few clouds at 1200 feet AGL
few clouds at 2500 feet AGL
broken clouds at 5000 feet AGL
Weather: -SHRA  (light rain showers)

METAR text: ROAH 150300Z 22013KT 9999 -SHRA FEW012 FEW025TCU BKN030 BKN/// 31/28 Q1007 RMK 2CU012 1TCU025 5CU030 A2975 TCU 10KM W-NW MOV NE
Conditions at: ROAH (NAHA (CIV/JASDF), JP) observed 0300 UTC 15 July 2020
Temperature: 31.0°C (88°F)
Dewpoint: 28.0°C (82°F) [RH = 84%]
Pressure (altimeter): 29.73 inches Hg (1007.0 mb)
Winds: from the SW (220 degrees) at 15 MPH (13 knots; 6.7 m/s)
Visibility: 6 or more miles (10+ km)
Ceiling: 3000 feet AGL
Clouds: few clouds at 1200 feet AGL
few clouds at 2500 feet AGL
broken clouds at 3000 feet AGL
Weather: -SHRA  (light rain showers)

METAR text: ROAH 150230Z 21013KT 9999 -SHRA FEW015 SCT030 BKN/// 31/28 Q1007
Conditions at: ROAH (NAHA (CIV/JASDF), JP) observed 0230 UTC 15 July 2020
Temperature: 31.0°C (88°F)
Dewpoint: 28.0°C (82°F) [RH = 84%]
Pressure (altimeter): 29.73 inches Hg (1007.0 mb)
Winds: from the SSW (210 degrees) at 15 MPH (13 knots; 6.7 m/s)
Visibility: 6 or more miles (10+ km)
Ceiling: at least 12,000 feet AGL
Clouds: few clouds at 1500 feet AGL
scattered clouds at 3000 feet AGL
Weather: -SHRA  (light rain showers)

METAR text: ROAH 150200Z 21013KT 9999 FEW015 BKN035 BKN/// 31/28 Q1007 RMK 1CU015 5CU035 A2976
Conditions at: ROAH (NAHA (CIV/JASDF), JP) observed 0200 UTC 15 July 2020
Temperature: 31.0°C (88°F)
Dewpoint: 28.0°C (82°F) [RH = 84%]
Pressure (altimeter): 29.73 inches Hg (1007.0 mb)
Winds: from the SSW (210 degrees) at 15 MPH (13 knots; 6.7 m/s)
Visibility: 6 or more miles (10+ km)
Ceiling: 3500 feet AGL
Clouds: few clouds at 1500 feet AGL
broken clouds at 3500 feet AGL
Weather: no significant weather observed at this time

METAR text: ROAH 150130Z 21013KT 9999 FEW015 SCT025 BKN/// 32/28 Q1007
Conditions at: ROAH (NAHA (CIV/JASDF), JP) observed 0130 UTC 15 July 2020
Temperature: 32.0°C (90°F)
Dewpoint: 28.0°C (82°F) [RH = 80%]
Pressure (altimeter): 29.73 inches Hg (1007.0 mb)
Winds: from the SSW (210 degrees) at 15 MPH (13 knots; 6.7 m/s)
Visibility: 6 or more miles (10+ km)
Ceiling: at least 12,000 feet AGL
Clouds: few clouds at 1500 feet AGL
scattered clouds at 2500 feet AGL
Weather: no significant weather observed at this time

METAR text: ROAH 150100Z 21012KT 9999 FEW015 BKN/// 31/27 Q1007 RMK 1CU015 A2976
Conditions at: ROAH (NAHA (CIV/JASDF), JP) observed 0100 UTC 15 July 2020
Temperature: 31.0°C (88°F)
Dewpoint: 27.0°C (81°F) [RH = 79%]
Pressure (altimeter): 29.73 inches Hg (1007.0 mb)
Winds: from the SSW (210 degrees) at 14 MPH (12 knots; 6.2 m/s)
Visibility: 6 or more miles (10+ km)
Ceiling: at least 12,000 feet AGL
Clouds: few clouds at 1500 feet AGL
Weather: no significant weather observed at this time

METAR text: ROAH 150030Z 21013KT 9999 FEW015 BKN/// 31/27 Q1007
Conditions at: ROAH (NAHA (CIV/JASDF), JP) observed 0030 UTC 15 July 2020
Temperature: 31.0°C (88°F)
Dewpoint: 27.0°C (81°F) [RH = 79%]
Pressure (altimeter): 29.73 inches Hg (1007.0 mb)
Winds: from the SSW (210 degrees) at 15 MPH (13 knots; 6.7 m/s)
Visibility: 6 or more miles (10+ km)
Ceiling: at least 12,000 feet AGL
Clouds: few clouds at 1500 feet AGL
Weather: no significant weather observed at this time

METAR text: ROAH 150000Z 21013KT 9999 FEW015 BKN/// 31/27 Q1007 RMK 1CU015 A2976
Conditions at: ROAH (NAHA (CIV/JASDF), JP) observed 0000 UTC 15 July 2020
Temperature: 31.0°C (88°F)
Dewpoint: 27.0°C (81°F) [RH = 79%]
Pressure (altimeter): 29.73 inches Hg (1007.0 mb)
Winds: from the SSW (210 degrees) at 15 MPH (13 knots; 6.7 m/s)
Visibility: 6 or more miles (10+ km)
Ceiling: at least 12,000 feet AGL
Clouds: few clouds at 1500 feet AGL
Weather: no significant weather observed at this time

METAR text: ROAH 142330Z 20012KT 9999 VCSH FEW015 SCT070 BKN/// 31/28 Q1007 RMK 1CU015 3AC070 A2976
Conditions at: ROAH (NAHA (CIV/JASDF), JP) observed 2330 UTC 14 July 2020
Temperature: 31.0°C (88°F)
Dewpoint: 28.0°C (82°F) [RH = 84%]
Pressure (altimeter): 29.73 inches Hg (1007.0 mb)
Winds: from the SSW (200 degrees) at 14 MPH (12 knots; 6.2 m/s)
Visibility: 6 or more miles (10+ km)
Ceiling: at least 12,000 feet AGL
Clouds: few clouds at 1500 feet AGL
scattered clouds at 7000 feet AGL
Weather: VCSH  (showers in vicinity)

METAR text: ROAH 142300Z 20013KT 9999 VCSH FEW015 SCT025 BKN/// 30/27 Q1007 RMK 1CU015 4CU025 A2976
Conditions at: ROAH (NAHA (CIV/JASDF), JP) observed 2300 UTC 14 July 2020
Temperature: 30.0°C (86°F)
Dewpoint: 27.0°C (81°F) [RH = 84%]
Pressure (altimeter): 29.73 inches Hg (1007.0 mb)
Winds: from the SSW (200 degrees) at 15 MPH (13 knots; 6.7 m/s)
Visibility: 6 or more miles (10+ km)
Ceiling: at least 12,000 feet AGL
Clouds: few clouds at 1500 feet AGL
scattered clouds at 2500 feet AGL
Weather: VCSH  (showers in vicinity)

METAR text: ROAH 142230Z 20011KT 9999 FEW015 BKN/// 30/27 Q1007
Conditions at: ROAH (NAHA (CIV/JASDF), JP) observed 2230 UTC 14 July 2020
Temperature: 30.0°C (86°F)
Dewpoint: 27.0°C (81°F) [RH = 84%]
Pressure (altimeter): 29.73 inches Hg (1007.0 mb)
Winds: from the SSW (200 degrees) at 13 MPH (11 knots; 5.7 m/s)
Visibility: 6 or more miles (10+ km)
Ceiling: at least 12,000 feet AGL
Clouds: few clouds at 1500 feet AGL
Weather: no significant weather observed at this time

METAR text: ROAH 142200Z 21011KT 9999 FEW015 BKN/// 29/27 Q1007
Conditions at: ROAH (NAHA (CIV/JASDF), JP) observed 2200 UTC 14 July 2020
Temperature: 29.0°C (84°F)
Dewpoint: 27.0°C (81°F) [RH = 89%]
Pressure (altimeter): 29.73 inches Hg (1007.0 mb)
Winds: from the SSW (210 degrees) at 13 MPH (11 knots; 5.7 m/s)
Visibility: 6 or more miles (10+ km)
Ceiling: at least 12,000 feet AGL
Clouds: few clouds at 1500 feet AGL
Weather: no significant weather observed at this time

METAR text: ROAH 142130Z 21011KT 9999 FEW015 BKN/// 29/27 Q1007
Conditions at: ROAH (NAHA (CIV/JASDF), JP) observed 2130 UTC 14 July 2020
Temperature: 29.0°C (84°F)
Dewpoint: 27.0°C (81°F) [RH = 89%]
Pressure (altimeter): 29.73 inches Hg (1007.0 mb)
Winds: from the SSW (210 degrees) at 13 MPH (11 knots; 5.7 m/s)
Visibility: 6 or more miles (10+ km)
Ceiling: at least 12,000 feet AGL
Clouds: few clouds at 1500 feet AGL
Weather: no significant weather observed at this time

METAR text: ROAH 142100Z 21012KT 9999 FEW015 BKN/// 29/27 Q1007 RMK 1CU015 A2976
Conditions at: ROAH (NAHA (CIV/JASDF), JP) observed 2100 UTC 14 July 2020
Temperature: 29.0°C (84°F)
Dewpoint: 27.0°C (81°F) [RH = 89%]
Pressure (altimeter): 29.73 inches Hg (1007.0 mb)
Winds: from the SSW (210 degrees) at 14 MPH (12 knots; 6.2 m/s)
Visibility: 6 or more miles (10+ km)
Ceiling: at least 12,000 feet AGL
Clouds: few clouds at 1500 feet AGL
Weather: no significant weather observed at this time

METAR text: ROAH 142030Z 20012KT 9999 VCSH FEW015 FEW025TCU SCT/// 29/27 Q1007
Conditions at: ROAH (NAHA (CIV/JASDF), JP) observed 2030 UTC 14 July 2020
Temperature: 29.0°C (84°F)
Dewpoint: 27.0°C (81°F) [RH = 89%]
Pressure (altimeter): 29.73 inches Hg (1007.0 mb)
Winds: from the SSW (200 degrees) at 14 MPH (12 knots; 6.2 m/s)
Visibility: 6 or more miles (10+ km)
Ceiling: at least 12,000 feet AGL
Clouds: few clouds at 1500 feet AGL
few clouds at 2500 feet AGL
Weather: VCSH  (showers in vicinity)

METAR text: ROAH 142000Z 20010KT 9999 FEW015 SCT050 29/27 Q1007 RMK 1CU015 3SC050 A2975
Conditions at: ROAH (NAHA (CIV/JASDF), JP) observed 2000 UTC 14 July 2020
Temperature: 29.0°C (84°F)
Dewpoint: 27.0°C (81°F) [RH = 89%]
Pressure (altimeter): 29.73 inches Hg (1007.0 mb)
Winds: from the SSW (200 degrees) at 12 MPH (10 knots; 5.1 m/s)
Visibility: 6 or more miles (10+ km)
Ceiling: at least 12,000 feet AGL
Clouds: few clouds at 1500 feet AGL
scattered clouds at 5000 feet AGL
Weather: no significant weather observed at this time

METAR text: ROAH 141930Z 21009KT 9999 -SHRA FEW013 SCT020 BKN040 28/26 Q1007 RMK 1CU013 3CU020 5SC040 A2975
Conditions at: ROAH (NAHA (CIV/JASDF), JP) observed 1930 UTC 14 July 2020
Temperature: 28.0°C (82°F)
Dewpoint: 26.0°C (79°F) [RH = 89%]
Pressure (altimeter): 29.73 inches Hg (1007.0 mb)
Winds: from the SSW (210 degrees) at 10 MPH (9 knots; 4.6 m/s)
Visibility: 6 or more miles (10+ km)
Ceiling: 4000 feet AGL
Clouds: few clouds at 1300 feet AGL
scattered clouds at 2000 feet AGL
broken clouds at 4000 feet AGL
Weather: -SHRA  (light rain showers)

METAR text: ROAH 141900Z 23013KT 9999 VCSH FEW015 FEW025CB SCT040 28/26 Q1007 RMK 1CU015 1CB025 3SC040 A2974 CB 10KM E MOV NE
Conditions at: ROAH (NAHA (CIV/JASDF), JP) observed 1900 UTC 14 July 2020
Temperature: 28.0°C (82°F)
Dewpoint: 26.0°C (79°F) [RH = 89%]
Pressure (altimeter): 29.73 inches Hg (1007.0 mb)
Winds: from the SW (230 degrees) at 15 MPH (13 knots; 6.7 m/s)
Visibility: 6 or more miles (10+ km)
Ceiling: at least 12,000 feet AGL
Clouds: few clouds at 1500 feet AGL
few clouds at 2500 feet AGL
scattered clouds at 4000 feet AGL
Weather: VCSH  (showers in vicinity)

METAR text: ROAH 141847Z 23013KT 9999 +SHRA FEW015 SCT020 FEW025CB BKN040 28/26 Q1007 RMK 1CU015 3CU020 2CB025 5SC040 A2974 4000E CB OHD MOV NE
Conditions at: ROAH (NAHA (CIV/JASDF), JP) observed 1847 UTC 14 July 2020
Temperature: 28.0°C (82°F)
Dewpoint: 26.0°C (79°F) [RH = 89%]
Pressure (altimeter): 29.73 inches Hg (1007.0 mb)
Winds: from the SW (230 degrees) at 15 MPH (13 knots; 6.7 m/s)
Visibility: 6 or more miles (10+ km)
Ceiling: 4000 feet AGL
Clouds: few clouds at 1500 feet AGL
scattered clouds at 2000 feet AGL
few clouds at 2500 feet AGL
broken clouds at 4000 feet AGL
Weather: +SHRA  (heavy rain showers)

METAR text: ROAH 141842Z 22012KT 4000 SHRA FEW015 SCT020 FEW025CB BKN040 28/26 Q1007 RMK 1CU015 3CU020 2CB025 5SC040 A2974 CB OHD MOV NE
Conditions at: ROAH (NAHA (CIV/JASDF), JP) observed 1842 UTC 14 July 2020
Temperature: 28.0°C (82°F)
Dewpoint: 26.0°C (79°F) [RH = 89%]
Pressure (altimeter): 29.73 inches Hg (1007.0 mb)
Winds: from the SW (220 degrees) at 14 MPH (12 knots; 6.2 m/s)
Visibility: 2.49 miles (4.01 km)
Ceiling: 4000 feet AGL
Clouds: few clouds at 1500 feet AGL
scattered clouds at 2000 feet AGL
few clouds at 2500 feet AGL
broken clouds at 4000 feet AGL
Weather: SHRA  (rain showers)

METAR text: ROAH 141836Z 21013KT 9999 SHRA FEW015 FEW025CB SCT050 28/26 Q1007 RMK 2CU015 1CB025 3SC050 A2974 4000SW CB 5KM SW MOV NE
Conditions at: ROAH (NAHA (CIV/JASDF), JP) observed 1836 UTC 14 July 2020
Temperature: 28.0°C (82°F)
Dewpoint: 26.0°C (79°F) [RH = 89%]
Pressure (altimeter): 29.73 inches Hg (1007.0 mb)
Winds: from the SSW (210 degrees) at 15 MPH (13 knots; 6.7 m/s)
Visibility: 6 or more miles (10+ km)
Ceiling: at least 12,000 feet AGL
Clouds: few clouds at 1500 feet AGL
few clouds at 2500 feet AGL
scattered clouds at 5000 feet AGL
Weather: SHRA  (rain showers)

METAR text: ROAH 141830Z 22014KT 9999 -SHRA FEW015 FEW025CB SCT050 28/25 Q1007 RMK 1CU015 1CB025 3SC050 A2974 CB 10KM SW MOV NE
Conditions at: ROAH (NAHA (CIV/JASDF), JP) observed 1830 UTC 14 July 2020
Temperature: 28.0°C (82°F)
Dewpoint: 25.0°C (77°F) [RH = 84%]
Pressure (altimeter): 29.73 inches Hg (1007.0 mb)
Winds: from the SW (220 degrees) at 16 MPH (14 knots; 7.2 m/s)
Visibility: 6 or more miles (10+ km)
Ceiling: at least 12,000 feet AGL
Clouds: few clouds at 1500 feet AGL
few clouds at 2500 feet AGL
scattered clouds at 5000 feet AGL
Weather: -SHRA  (light rain showers)

METAR text: ROAH 141820Z 23017KT 8000 SHRA FEW010 SCT020 FEW025CB BKN050 27/25 Q1007 RMK 1CU010 3CU020 1CB025 5SC050 A2974 CB 8KM NE AND 15KM SW MOV NE
Conditions at: ROAH (NAHA (CIV/JASDF), JP) observed 1820 UTC 14 July 2020
Temperature: 27.0°C (81°F)
Dewpoint: 25.0°C (77°F) [RH = 89%]
Pressure (altimeter): 29.73 inches Hg (1007.0 mb)
Winds: from the SW (230 degrees) at 20 MPH (17 knots; 8.7 m/s)
Visibility: 5 miles ( 8 km)
Ceiling: 5000 feet AGL
Clouds: few clouds at 1000 feet AGL
scattered clouds at 2000 feet AGL
few clouds at 2500 feet AGL
broken clouds at 5000 feet AGL
Weather: SHRA  (rain showers)

METAR text: ROAH 141807Z 22017G28KT 4000 R18L/P2000N R18R/1600VP2000N +SHRA FEW010 SCT020 FEW025CB BKN/// 28/25 Q1007 RMK 1CU010 4CU020 2CB025 A2975 CB OHD MOV NE
Conditions at: ROAH (NAHA (CIV/JASDF), JP) observed 1807 UTC 14 July 2020
Temperature: 28.0°C (82°F)
Dewpoint: 25.0°C (77°F) [RH = 84%]
Pressure (altimeter): 29.73 inches Hg (1007.0 mb)
Winds: from the SW (220 degrees) at 20 MPH (17 knots; 8.7 m/s)
gusting to 32 MPH (28 knots; 14.4 m/s)
Visibility: 2.49 miles (4.01 km)
Ceiling: at least 12,000 feet AGL
Clouds: few clouds at 1000 feet AGL
scattered clouds at 2000 feet AGL
few clouds at 2500 feet AGL
Weather: +SHRA  (heavy rain showers)

METAR text: ROAH 141800Z 21014KT 9999 SHRA FEW010 FEW025CB BKN/// 29/27 Q1007 RMK 1CU010 1CB025 A2974 5000SW CB 5KM SW MOV NE
Conditions at: ROAH (NAHA (CIV/JASDF), JP) observed 1800 UTC 14 July 2020
Temperature: 29.0°C (84°F)
Dewpoint: 27.0°C (81°F) [RH = 89%]
Pressure (altimeter): 29.73 inches Hg (1007.0 mb)
Winds: from the SSW (210 degrees) at 16 MPH (14 knots; 7.2 m/s)
Visibility: 6 or more miles (10+ km)
Ceiling: at least 12,000 feet AGL
Clouds: few clouds at 1000 feet AGL
few clouds at 2500 feet AGL
Weather: SHRA  (rain showers)

METAR text: ROAH 141730Z 20012KT 9999 FEW009 FEW025CB BKN/// 29/26 Q1007
Conditions at: ROAH (NAHA (CIV/JASDF), JP) observed 1730 UTC 14 July 2020
Temperature: 29.0°C (84°F)
Dewpoint: 26.0°C (79°F) [RH = 84%]
Pressure (altimeter): 29.73 inches Hg (1007.0 mb)
Winds: from the SSW (200 degrees) at 14 MPH (12 knots; 6.2 m/s)
Visibility: 6 or more miles (10+ km)
Ceiling: at least 12,000 feet AGL
Clouds: few clouds at 900 feet AGL
few clouds at 2500 feet AGL
Weather: no significant weather observed at this time

METAR text: ROAH 141700Z 21015KT 9999 VCSH FEW009 SCT015 FEW025CB 29/26 Q1007 RMK 1CU009 3CU015 1CB025 A2976 CB SW
Conditions at: ROAH (NAHA (CIV/JASDF), JP) observed 1700 UTC 14 July 2020
Temperature: 29.0°C (84°F)
Dewpoint: 26.0°C (79°F) [RH = 84%]
Pressure (altimeter): 29.73 inches Hg (1007.0 mb)
Winds: from the SSW (210 degrees) at 17 MPH (15 knots; 7.7 m/s)
Visibility: 6 or more miles (10+ km)
Ceiling: at least 12,000 feet AGL
Clouds: few clouds at 900 feet AGL
scattered clouds at 1500 feet AGL
few clouds at 2500 feet AGL
Weather: VCSH  (showers in vicinity)

METAR text: ROAH 141630Z 21013KT 9999 FEW009 SCT015 FEW025CB 29/27 Q1007 RMK 1CU009 4CU015 1CB025 A2976 CB 20KM S MOV NE LIGHTNING E
Conditions at: ROAH (NAHA (CIV/JASDF), JP) observed 1630 UTC 14 July 2020
Temperature: 29.0°C (84°F)
Dewpoint: 27.0°C (81°F) [RH = 89%]
Pressure (altimeter): 29.73 inches Hg (1007.0 mb)
Winds: from the SSW (210 degrees) at 15 MPH (13 knots; 6.7 m/s)
Visibility: 6 or more miles (10+ km)
Ceiling: at least 12,000 feet AGL
Clouds: few clouds at 900 feet AGL
scattered clouds at 1500 feet AGL
few clouds at 2500 feet AGL
Weather: no significant weather observed at this time

METAR text: ROAH 141600Z 22013KT 9999 -SHRA FEW009 SCT015 FEW025CB 29/27 Q1008 RMK 1CU009 3CU015 1CB025 A2977 CB SW AND W
Conditions at: ROAH (NAHA (CIV/JASDF), JP) observed 1600 UTC 14 July 2020
Temperature: 29.0°C (84°F)
Dewpoint: 27.0°C (81°F) [RH = 89%]
Pressure (altimeter): 29.76 inches Hg (1008.0 mb)
Winds: from the SW (220 degrees) at 15 MPH (13 knots; 6.7 m/s)
Visibility: 6 or more miles (10+ km)
Ceiling: at least 12,000 feet AGL
Clouds: few clouds at 900 feet AGL
scattered clouds at 1500 feet AGL
few clouds at 2500 feet AGL
Weather: -SHRA  (light rain showers)

METAR text: ROAH 141530Z 22012KT 9999 VCSH FEW015 FEW025CB SCT060 29/27 Q1008 RMK 1CU015 1CB025 3SC060 A2979 CB SW
Conditions at: ROAH (NAHA (CIV/JASDF), JP) observed 1530 UTC 14 July 2020
Temperature: 29.0°C (84°F)
Dewpoint: 27.0°C (81°F) [RH = 89%]
Pressure (altimeter): 29.76 inches Hg (1008.0 mb)
Winds: from the SW (220 degrees) at 14 MPH (12 knots; 6.2 m/s)
Visibility: 6 or more miles (10+ km)
Ceiling: at least 12,000 feet AGL
Clouds: few clouds at 1500 feet AGL
few clouds at 2500 feet AGL
scattered clouds at 6000 feet AGL
Weather: VCSH  (showers in vicinity)

METAR text: ROAH 141500Z 22009KT 9999 FEW015 FEW025CB BKN060 29/28 Q1009 RMK 1CU015 1CB025 6SC060 A2980 CB 25KM S MOV NE
Conditions at: ROAH (NAHA (CIV/JASDF), JP) observed 1500 UTC 14 July 2020
Temperature: 29.0°C (84°F)
Dewpoint: 28.0°C (82°F) [RH = 94%]
Pressure (altimeter): 29.79 inches Hg (1009.0 mb)
Winds: from the SW (220 degrees) at 10 MPH (9 knots; 4.6 m/s)
Visibility: 6 or more miles (10+ km)
Ceiling: 6000 feet AGL
Clouds: few clouds at 1500 feet AGL
few clouds at 2500 feet AGL
broken clouds at 6000 feet AGL
Weather: no significant weather observed at this time

METAR text: ROAH 141430Z 20008KT 9999 FEW015 FEW025CB SCT/// 29/27 Q1009
Conditions at: ROAH (NAHA (CIV/JASDF), JP) observed 1430 UTC 14 July 2020
Temperature: 29.0°C (84°F)
Dewpoint: 27.0°C (81°F) [RH = 89%]
Pressure (altimeter): 29.79 inches Hg (1009.0 mb)
Winds: from the SSW (200 degrees) at 9 MPH (8 knots; 4.1 m/s)
Visibility: 6 or more miles (10+ km)
Ceiling: at least 12,000 feet AGL
Clouds: few clouds at 1500 feet AGL
few clouds at 2500 feet AGL
Weather: no significant weather observed at this time

METAR text: ROAH 141400Z 19008KT 9999 VCSH FEW015 SCT020 FEW025TCU BKN070 29/27 Q1009 RMK 1CU015 3CU020 1TCU025 5AC070 A2981 TCU 20KM E-SE MOV NE
Conditions at: ROAH (NAHA (CIV/JASDF), JP) observed 1400 UTC 14 July 2020
Temperature: 29.0°C (84°F)
Dewpoint: 27.0°C (81°F) [RH = 89%]
Pressure (altimeter): 29.79 inches Hg (1009.0 mb)
Winds: from the S (190 degrees) at 9 MPH (8 knots; 4.1 m/s)
Visibility: 6 or more miles (10+ km)
Ceiling: 7000 feet AGL
Clouds: few clouds at 1500 feet AGL
scattered clouds at 2000 feet AGL
few clouds at 2500 feet AGL
broken clouds at 7000 feet AGL
Weather: VCSH  (showers in vicinity)

METAR text: ROAH 141347Z 19008KT 160V220 9999 -SHRA FEW015 FEW025TCU BKN050 29/27 Q1009 RMK 1CU015 1TCU025 5SC050 A2981 TCU 10KM E-SE MOV NE
Conditions at: ROAH (NAHA (CIV/JASDF), JP) observed 1347 UTC 14 July 2020
Temperature: 29.0°C (84°F)
Dewpoint: 27.0°C (81°F) [RH = 89%]
Pressure (altimeter): 29.79 inches Hg (1009.0 mb)
Winds: from the S (190 degrees) at 9 MPH (8 knots; 4.1 m/s)
Visibility: 6 or more miles (10+ km)
Ceiling: 5000 feet AGL
Clouds: few clouds at 1500 feet AGL
few clouds at 2500 feet AGL
broken clouds at 5000 feet AGL
Weather: -SHRA  (light rain showers)

METAR text: ROAH 141336Z 22004KT 150V270 9999 +SHRA FEW015 SCT020 FEW025TCU BKN050 28/26 Q1009 RMK 1CU015 3CU020 2TCU025 5SC050 A2980 TCU 6KM NE AND SE MOV NE
Conditions at: ROAH (NAHA (CIV/JASDF), JP) observed 1336 UTC 14 July 2020
Temperature: 28.0°C (82°F)
Dewpoint: 26.0°C (79°F) [RH = 89%]
Pressure (altimeter): 29.79 inches Hg (1009.0 mb)
Winds: from the SW (220 degrees) at 5 MPH (4 knots; 2.1 m/s)
Visibility: 6 or more miles (10+ km)
Ceiling: 5000 feet AGL
Clouds: few clouds at 1500 feet AGL
scattered clouds at 2000 feet AGL
few clouds at 2500 feet AGL
broken clouds at 5000 feet AGL
Weather: +SHRA  (heavy rain showers)

METAR text: ROAH 141330Z 22003KT 190V270 9000 R18L/1500VP2000U R18R/1200VP2000U +SHRA FEW015 SCT020 FEW025TCU BKN050 28/25 Q1009
Conditions at: ROAH (NAHA (CIV/JASDF), JP) observed 1330 UTC 14 July 2020
Temperature: 28.0°C (82°F)
Dewpoint: 25.0°C (77°F) [RH = 84%]
Pressure (altimeter): 29.79 inches Hg (1009.0 mb)
Winds: from the SW (220 degrees) at 3 MPH (3 knots; 1.5 m/s)
Visibility: 6 miles ( 9 km)
Ceiling: 5000 feet AGL
Clouds: few clouds at 1500 feet AGL
scattered clouds at 2000 feet AGL
few clouds at 2500 feet AGL
broken clouds at 5000 feet AGL
Weather: +SHRA  (heavy rain showers)

METAR text: ROAH 141323Z 25016G26KT 2500 R18L/P2000N R18R/1200VP2000D +SHRA FEW015 BKN020 SCT025TCU 28/25 Q1009 RMK 1CU015 5CU020 3TCU025 A2980 TCU OHD MOV NE
Conditions at: ROAH (NAHA (CIV/JASDF), JP) observed 1323 UTC 14 July 2020
Temperature: 28.0°C (82°F)
Dewpoint: 25.0°C (77°F) [RH = 84%]
Pressure (altimeter): 29.79 inches Hg (1009.0 mb)
Winds: from the WSW (250 degrees) at 18 MPH (16 knots; 8.2 m/s)
gusting to 30 MPH (26 knots; 13.4 m/s)
Visibility: 1.55 miles (2.49 km)
Ceiling: 2000 feet AGL
Clouds: few clouds at 1500 feet AGL
broken clouds at 2000 feet AGL
scattered clouds at 2500 feet AGL
Weather: +SHRA  (heavy rain showers)

METAR text: ROAH 141322Z 24019KT 3000 R18L/P2000N R18R/2000N +SHRA FEW015 BKN020 FEW025TCU 28/25 Q1009 RMK 1CU015 5CU020 2TCU025 A2980 TCU OHD MOV NE
Conditions at: ROAH (NAHA (CIV/JASDF), JP) observed 1322 UTC 14 July 2020
Temperature: 28.0°C (82°F)
Dewpoint: 25.0°C (77°F) [RH = 84%]
Pressure (altimeter): 29.79 inches Hg (1009.0 mb)
Winds: from the WSW (240 degrees) at 22 MPH (19 knots; 9.8 m/s)
Visibility: 1.86 miles (2.99 km)
Ceiling: 2000 feet AGL
Clouds: few clouds at 1500 feet AGL
broken clouds at 2000 feet AGL
few clouds at 2500 feet AGL
Weather: +SHRA  (heavy rain showers)

METAR text: ROAH 141318Z 21009KT 9999 +SHRA FEW015 SCT020 FEW025TCU 29/27 Q1009 RMK 1CU015 3CU020 2TCU025 A2980 3000W TCU OHD MOV NE
Conditions at: ROAH (NAHA (CIV/JASDF), JP) observed 1318 UTC 14 July 2020
Temperature: 29.0°C (84°F)
Dewpoint: 27.0°C (81°F) [RH = 89%]
Pressure (altimeter): 29.79 inches Hg (1009.0 mb)
Winds: from the SSW (210 degrees) at 10 MPH (9 knots; 4.6 m/s)
Visibility: 6 or more miles (10+ km)
Ceiling: at least 12,000 feet AGL
Clouds: few clouds at 1500 feet AGL
scattered clouds at 2000 feet AGL
few clouds at 2500 feet AGL
Weather: +SHRA  (heavy rain showers)

METAR text: ROAH 141312Z 20009KT 9999 SHRA FEW020 FEW025TCU 29/28 Q1009 RMK 2CU020 1TCU025 A2980 TCU 6KM SW-W MOV NE
Conditions at: ROAH (NAHA (CIV/JASDF), JP) observed 1312 UTC 14 July 2020
Temperature: 29.0°C (84°F)
Dewpoint: 28.0°C (82°F) [RH = 94%]
Pressure (altimeter): 29.79 inches Hg (1009.0 mb)
Winds: from the SSW (200 degrees) at 10 MPH (9 knots; 4.6 m/s)
Visibility: 6 or more miles (10+ km)
Ceiling: at least 12,000 feet AGL
Clouds: few clouds at 2000 feet AGL
few clouds at 2500 feet AGL
Weather: SHRA  (rain showers)

METAR text: ROAH 141300Z 21008KT 9999 -SHRA FEW020 FEW025TCU 29/28 Q1009 RMK 1CU020 1TCU025 A2979 TCU 10KM SW MOV NE
Conditions at: ROAH (NAHA (CIV/JASDF), JP) observed 1300 UTC 14 July 2020
Temperature: 29.0°C (84°F)
Dewpoint: 28.0°C (82°F) [RH = 94%]
Pressure (altimeter): 29.79 inches Hg (1009.0 mb)
Winds: from the SSW (210 degrees) at 9 MPH (8 knots; 4.1 m/s)
Visibility: 6 or more miles (10+ km)
Ceiling: at least 12,000 feet AGL
Clouds: few clouds at 2000 feet AGL
few clouds at 2500 feet AGL
Weather: -SHRA  (light rain showers)

METAR text: ROAH 141230Z 21009KT 9999 VCSH FEW020 SCT/// 29/27 Q1008 RMK 1CU020 A2979
Conditions at: ROAH (NAHA (CIV/JASDF), JP) observed 1230 UTC 14 July 2020
Temperature: 29.0°C (84°F)
Dewpoint: 27.0°C (81°F) [RH = 89%]
Pressure (altimeter): 29.76 inches Hg (1008.0 mb)
Winds: from the SSW (210 degrees) at 10 MPH (9 knots; 4.6 m/s)
Visibility: 6 or more miles (10+ km)
Ceiling: at least 12,000 feet AGL
Clouds: few clouds at 2000 feet AGL
Weather: VCSH  (showers in vicinity)

METAR text: ROAH 141200Z 22009KT 9999 FEW020 FEW025TCU SCT/// 29/27 Q1008
Conditions at: ROAH (NAHA (CIV/JASDF), JP) observed 1200 UTC 14 July 2020
Temperature: 29.0°C (84°F)
Dewpoint: 27.0°C (81°F) [RH = 89%]
Pressure (altimeter): 29.76 inches Hg (1008.0 mb)
Winds: from the SW (220 degrees) at 10 MPH (9 knots; 4.6 m/s)
Visibility: 6 or more miles (10+ km)
Ceiling: at least 12,000 feet AGL
Clouds: few clouds at 2000 feet AGL
few clouds at 2500 feet AGL
Weather: no significant weather observed at this time

METAR text: ROAH 141145Z 21009KT 9999 -SHRA FEW020 FEW025TCU BKN/// 29/27 Q1008 RMK 1CU020 1TCU025 A2977 TCU 10KM NE MOV NE
Conditions at: ROAH (NAHA (CIV/JASDF), JP) observed 1145 UTC 14 July 2020
Temperature: 29.0°C (84°F)
Dewpoint: 27.0°C (81°F) [RH = 89%]
Pressure (altimeter): 29.76 inches Hg (1008.0 mb)
Winds: from the SSW (210 degrees) at 10 MPH (9 knots; 4.6 m/s)
Visibility: 6 or more miles (10+ km)
Ceiling: at least 12,000 feet AGL
Clouds: few clouds at 2000 feet AGL
few clouds at 2500 feet AGL
Weather: -SHRA  (light rain showers)

METAR text: ROAH 141130Z 22009KT 9999 SHRA FEW010 FEW025TCU BKN/// 29/27 Q1008
Conditions at: ROAH (NAHA (CIV/JASDF), JP) observed 1130 UTC 14 July 2020
Temperature: 29.0°C (84°F)
Dewpoint: 27.0°C (81°F) [RH = 89%]
Pressure (altimeter): 29.76 inches Hg (1008.0 mb)
Winds: from the SW (220 degrees) at 10 MPH (9 knots; 4.6 m/s)
Visibility: 6 or more miles (10+ km)
Ceiling: at least 12,000 feet AGL
Clouds: few clouds at 1000 feet AGL
few clouds at 2500 feet AGL
Weather: SHRA  (rain showers)

METAR text: ROAH 141114Z 22009KT 9999 SHRA FEW010 FEW025TCU BKN/// 29/27 Q1008 RMK 1CU010 1TCU025 A2977 TCU 8KM W MOV NE
Conditions at: ROAH (NAHA (CIV/JASDF), JP) observed 1114 UTC 14 July 2020
Temperature: 29.0°C (84°F)
Dewpoint: 27.0°C (81°F) [RH = 89%]
Pressure (altimeter): 29.76 inches Hg (1008.0 mb)
Winds: from the SW (220 degrees) at 10 MPH (9 knots; 4.6 m/s)
Visibility: 6 or more miles (10+ km)
Ceiling: at least 12,000 feet AGL
Clouds: few clouds at 1000 feet AGL
few clouds at 2500 feet AGL
Weather: SHRA  (rain showers)

METAR text: ROAH 141100Z 22008G18KT 9999 +SHRA FEW010 SCT020 FEW025TCU BKN/// 29/26 Q1008 RMK 1CU010 3CU020 1TCU025 A2977 4500NE TCU OHD AND 15KM W MOV NE
Conditions at: ROAH (NAHA (CIV/JASDF), JP) observed 1100 UTC 14 July 2020
Temperature: 29.0°C (84°F)
Dewpoint: 26.0°C (79°F) [RH = 84%]
Pressure (altimeter): 29.76 inches Hg (1008.0 mb)
Winds: from the SW (220 degrees) at 9 MPH (8 knots; 4.1 m/s)
gusting to 21 MPH (18 knots; 9.3 m/s)
Visibility: 6 or more miles (10+ km)
Ceiling: at least 12,000 feet AGL
Clouds: few clouds at 1000 feet AGL
scattered clouds at 2000 feet AGL
few clouds at 2500 feet AGL
Weather: +SHRA  (heavy rain showers)

METAR text: ROAH 141041Z 23004KT 9999 SHRA FEW012 SCT020 FEW025TCU BKN/// 30/27 Q1008 RMK 1CU012 3CU020 1TCU025 A2977 TCU 10KM SE MOV NE
Conditions at: ROAH (NAHA (CIV/JASDF), JP) observed 1041 UTC 14 July 2020
Temperature: 30.0°C (86°F)
Dewpoint: 27.0°C (81°F) [RH = 84%]
Pressure (altimeter): 29.76 inches Hg (1008.0 mb)
Winds: from the SW (230 degrees) at 5 MPH (4 knots; 2.1 m/s)
Visibility: 6 or more miles (10+ km)
Ceiling: at least 12,000 feet AGL
Clouds: few clouds at 1200 feet AGL
scattered clouds at 2000 feet AGL
few clouds at 2500 feet AGL
Weather: SHRA  (rain showers)

METAR text: ROAH 141030Z 22004KT 190V260 9999 -SHRA FEW012 SCT020 FEW025TCU BKN/// 30/27 Q1008
Conditions at: ROAH (NAHA (CIV/JASDF), JP) observed 1030 UTC 14 July 2020
Temperature: 30.0°C (86°F)
Dewpoint: 27.0°C (81°F) [RH = 84%]
Pressure (altimeter): 29.76 inches Hg (1008.0 mb)
Winds: from the SW (220 degrees) at 5 MPH (4 knots; 2.1 m/s)
Visibility: 6 or more miles (10+ km)
Ceiling: at least 12,000 feet AGL
Clouds: few clouds at 1200 feet AGL
scattered clouds at 2000 feet AGL
few clouds at 2500 feet AGL
Weather: -SHRA  (light rain showers)

METAR text: ROAH 141000Z 23005KT 9999 VCSH FEW013 FEW025TCU BKN/// 30/27 Q1008
Conditions at: ROAH (NAHA (CIV/JASDF), JP) observed 1000 UTC 14 July 2020
Temperature: 30.0°C (86°F)
Dewpoint: 27.0°C (81°F) [RH = 84%]
Pressure (altimeter): 29.76 inches Hg (1008.0 mb)
Winds: from the SW (230 degrees) at 6 MPH (5 knots; 2.6 m/s)
Visibility: 6 or more miles (10+ km)
Ceiling: at least 12,000 feet AGL
Clouds: few clouds at 1300 feet AGL
few clouds at 2500 feet AGL
Weather: VCSH  (showers in vicinity)

METAR text: ROAH 140930Z 24007KT 9999 FEW013 SCT070 BKN/// 30/27 Q1007
Conditions at: ROAH (NAHA (CIV/JASDF), JP) observed 0930 UTC 14 July 2020
Temperature: 30.0°C (86°F)
Dewpoint: 27.0°C (81°F) [RH = 84%]
Pressure (altimeter): 29.73 inches Hg (1007.0 mb)
Winds: from the WSW (240 degrees) at 8 MPH (7 knots; 3.6 m/s)
Visibility: 6 or more miles (10+ km)
Ceiling: at least 12,000 feet AGL
Clouds: few clouds at 1300 feet AGL
scattered clouds at 7000 feet AGL
Weather: no significant weather observed at this time

METAR text: ROAH 140900Z 24008KT 9999 FEW015 SCT060 BKN/// 30/27 Q1007
Conditions at: ROAH (NAHA (CIV/JASDF), JP) observed 0900 UTC 14 July 2020
Temperature: 30.0°C (86°F)
Dewpoint: 27.0°C (81°F) [RH = 84%]
Pressure (altimeter): 29.73 inches Hg (1007.0 mb)
Winds: from the WSW (240 degrees) at 9 MPH (8 knots; 4.1 m/s)
Visibility: 6 or more miles (10+ km)
Ceiling: at least 12,000 feet AGL
Clouds: few clouds at 1500 feet AGL
scattered clouds at 6000 feet AGL
Weather: no significant weather observed at this time

METAR text: ROAH 140830Z 24010KT 9999 FEW015 SCT070 BKN/// 30/26 Q1007 RMK 1CU015 3AC070 A2974
Conditions at: ROAH (NAHA (CIV/JASDF), JP) observed 0830 UTC 14 July 2020
Temperature: 30.0°C (86°F)
Dewpoint: 26.0°C (79°F) [RH = 79%]
Pressure (altimeter): 29.73 inches Hg (1007.0 mb)
Winds: from the WSW (240 degrees) at 12 MPH (10 knots; 5.1 m/s)
Visibility: 6 or more miles (10+ km)
Ceiling: at least 12,000 feet AGL
Clouds: few clouds at 1500 feet AGL
scattered clouds at 7000 feet AGL
Weather: no significant weather observed at this time

METAR text: ROAH 140800Z 24010KT 9999 FEW015 SCT050 BKN/// 30/26 Q1007 RMK 1CU015 3SC050 A2974
Conditions at: ROAH (NAHA (CIV/JASDF), JP) observed 0800 UTC 14 July 2020
Temperature: 30.0°C (86°F)
Dewpoint: 26.0°C (79°F) [RH = 79%]
Pressure (altimeter): 29.73 inches Hg (1007.0 mb)
Winds: from the WSW (240 degrees) at 12 MPH (10 knots; 5.1 m/s)
Visibility: 6 or more miles (10+ km)
Ceiling: at least 12,000 feet AGL
Clouds: few clouds at 1500 feet AGL
scattered clouds at 5000 feet AGL
Weather: no significant weather observed at this time

METAR text: ROAH 140730Z 23011KT 9999 VCSH FEW012 SCT060 BKN/// 30/26 Q1007
Conditions at: ROAH (NAHA (CIV/JASDF), JP) observed 0730 UTC 14 July 2020
Temperature: 30.0°C (86°F)
Dewpoint: 26.0°C (79°F) [RH = 79%]
Pressure (altimeter): 29.73 inches Hg (1007.0 mb)
Winds: from the SW (230 degrees) at 13 MPH (11 knots; 5.7 m/s)
Visibility: 6 or more miles (10+ km)
Ceiling: at least 12,000 feet AGL
Clouds: few clouds at 1200 feet AGL
scattered clouds at 6000 feet AGL
Weather: VCSH  (showers in vicinity)

METAR text: ROAH 140700Z 25011KT 9999 -SHRA FEW013 SCT060 BKN/// 30/26 Q1007
Conditions at: ROAH (NAHA (CIV/JASDF), JP) observed 0700 UTC 14 July 2020
Temperature: 30.0°C (86°F)
Dewpoint: 26.0°C (79°F) [RH = 79%]
Pressure (altimeter): 29.73 inches Hg (1007.0 mb)
Winds: from the WSW (250 degrees) at 13 MPH (11 knots; 5.7 m/s)
Visibility: 6 or more miles (10+ km)
Ceiling: at least 12,000 feet AGL
Clouds: few clouds at 1300 feet AGL
scattered clouds at 6000 feet AGL
Weather: -SHRA  (light rain showers)

METAR text: ROAH 140645Z 23010KT 9999 SHRA FEW013 SCT060 BKN/// 31/27 Q1007 RMK 1CU013 3SC060 A2975
Conditions at: ROAH (NAHA (CIV/JASDF), JP) observed 0645 UTC 14 July 2020
Temperature: 31.0°C (88°F)
Dewpoint: 27.0°C (81°F) [RH = 79%]
Pressure (altimeter): 29.73 inches Hg (1007.0 mb)
Winds: from the SW (230 degrees) at 12 MPH (10 knots; 5.1 m/s)
Visibility: 6 or more miles (10+ km)
Ceiling: at least 12,000 feet AGL
Clouds: few clouds at 1300 feet AGL
scattered clouds at 6000 feet AGL
Weather: SHRA  (rain showers)

METAR text: ROAH 140630Z 22009KT 9999 VCSH FEW013 BKN050 30/27 Q1007 RMK 1CU013 6SC050 A2975
Conditions at: ROAH (NAHA (CIV/JASDF), JP) observed 0630 UTC 14 July 2020
Temperature: 30.0°C (86°F)
Dewpoint: 27.0°C (81°F) [RH = 84%]
Pressure (altimeter): 29.73 inches Hg (1007.0 mb)
Winds: from the SW (220 degrees) at 10 MPH (9 knots; 4.6 m/s)
Visibility: 6 or more miles (10+ km)
Ceiling: 5000 feet AGL
Clouds: few clouds at 1300 feet AGL
broken clouds at 5000 feet AGL
Weather: VCSH  (showers in vicinity)

METAR text: ROAH 140600Z 24012KT 9999 -SHRA FEW013 BKN050 BKN/// 30/26 Q1007
Conditions at: ROAH (NAHA (CIV/JASDF), JP) observed 0600 UTC 14 July 2020
Temperature: 30.0°C (86°F)
Dewpoint: 26.0°C (79°F) [RH = 79%]
Pressure (altimeter): 29.73 inches Hg (1007.0 mb)
Winds: from the WSW (240 degrees) at 14 MPH (12 knots; 6.2 m/s)
Visibility: 6 or more miles (10+ km)
Ceiling: 5000 feet AGL
Clouds: few clouds at 1300 feet AGL
broken clouds at 5000 feet AGL
Weather: -SHRA  (light rain showers)

METAR text: ROAH 140532Z 23017G27KT 9999 SHRA FEW013 FEW025TCU SCT050 BKN/// 31/27 Q1007 RMK 2CU013 2TCU025 3SC050 A2975 TCU 15KM SE MOV NE
Conditions at: ROAH (NAHA (CIV/JASDF), JP) observed 0532 UTC 14 July 2020
Temperature: 31.0°C (88°F)
Dewpoint: 27.0°C (81°F) [RH = 79%]
Pressure (altimeter): 29.73 inches Hg (1007.0 mb)
Winds: from the SW (230 degrees) at 20 MPH (17 knots; 8.7 m/s)
gusting to 31 MPH (27 knots; 13.9 m/s)
Visibility: 6 or more miles (10+ km)
Ceiling: at least 12,000 feet AGL
Clouds: few clouds at 1300 feet AGL
few clouds at 2500 feet AGL
scattered clouds at 5000 feet AGL
Weather: SHRA  (rain showers)

METAR text: ROAH 140530Z 23015KT 9999 SHRA FEW013 FEW025TCU SCT050 BKN/// 31/27 Q1007
Conditions at: ROAH (NAHA (CIV/JASDF), JP) observed 0530 UTC 14 July 2020
Temperature: 31.0°C (88°F)
Dewpoint: 27.0°C (81°F) [RH = 79%]
Pressure (altimeter): 29.73 inches Hg (1007.0 mb)
Winds: from the SW (230 degrees) at 17 MPH (15 knots; 7.7 m/s)
Visibility: 6 or more miles (10+ km)
Ceiling: at least 12,000 feet AGL
Clouds: few clouds at 1300 feet AGL
few clouds at 2500 feet AGL
scattered clouds at 5000 feet AGL
Weather: SHRA  (rain showers)

METAR text: ROAH 140500Z 24012KT 9999 VCSH FEW015 SCT045 BKN/// 31/26 Q1007
Conditions at: ROAH (NAHA (CIV/JASDF), JP) observed 0500 UTC 14 July 2020
Temperature: 31.0°C (88°F)
Dewpoint: 26.0°C (79°F) [RH = 75%]
Pressure (altimeter): 29.73 inches Hg (1007.0 mb)
Winds: from the WSW (240 degrees) at 14 MPH (12 knots; 6.2 m/s)
Visibility: 6 or more miles (10+ km)
Ceiling: at least 12,000 feet AGL
Clouds: few clouds at 1500 feet AGL
scattered clouds at 4500 feet AGL
Weather: VCSH  (showers in vicinity)

METAR text: ROAH 140430Z 24012KT 9999 VCSH FEW015 BKN/// 31/28 Q1007 RMK 1CU015 A2976
Conditions at: ROAH (NAHA (CIV/JASDF), JP) observed 0430 UTC 14 July 2020
Temperature: 31.0°C (88°F)
Dewpoint: 28.0°C (82°F) [RH = 84%]
Pressure (altimeter): 29.73 inches Hg (1007.0 mb)
Winds: from the WSW (240 degrees) at 14 MPH (12 knots; 6.2 m/s)
Visibility: 6 or more miles (10+ km)
Ceiling: at least 12,000 feet AGL
Clouds: few clouds at 1500 feet AGL
Weather: VCSH  (showers in vicinity)

METAR text: ROAH 140421Z 25011KT 9999 -SHRA FEW010 SCT015 31/28 Q1007 RMK 1CU010 3CU015 A2976
Conditions at: ROAH (NAHA (CIV/JASDF), JP) observed 0421 UTC 14 July 2020
Temperature: 31.0°C (88°F)
Dewpoint: 28.0°C (82°F) [RH = 84%]
Pressure (altimeter): 29.73 inches Hg (1007.0 mb)
Winds: from the WSW (250 degrees) at 13 MPH (11 knots; 5.7 m/s)
Visibility: 6 or more miles (10+ km)
Ceiling: at least 12,000 feet AGL
Clouds: few clouds at 1000 feet AGL
scattered clouds at 1500 feet AGL
Weather: -SHRA  (light rain showers)

METAR text: ROAH 140410Z 25011KT 9999 SHRA FEW010 BKN015 30/27 Q1008 RMK 1CU010 5CU015 A2977
Conditions at: ROAH (NAHA (CIV/JASDF), JP) observed 0410 UTC 14 July 2020
Temperature: 30.0°C (86°F)
Dewpoint: 27.0°C (81°F) [RH = 84%]
Pressure (altimeter): 29.76 inches Hg (1008.0 mb)
Winds: from the WSW (250 degrees) at 13 MPH (11 knots; 5.7 m/s)
Visibility: 6 or more miles (10+ km)
Ceiling: 1500 feet AGL
Clouds: few clouds at 1000 feet AGL
broken clouds at 1500 feet AGL
Weather: SHRA  (rain showers)

METAR text: ROAH 140405Z 23009KT 9999 R18L/P2000N R18R/0900VP2000U -SHRA FEW010 BKN015 30/28 Q1008 RMK 1CU010 5CU015 A2977
Conditions at: ROAH (NAHA (CIV/JASDF), JP) observed 0405 UTC 14 July 2020
Temperature: 30.0°C (86°F)
Dewpoint: 28.0°C (82°F) [RH = 89%]
Pressure (altimeter): 29.76 inches Hg (1008.0 mb)
Winds: from the SW (230 degrees) at 10 MPH (9 knots; 4.6 m/s)
Visibility: 6 or more miles (10+ km)
Ceiling: 1500 feet AGL
Clouds: few clouds at 1000 feet AGL
broken clouds at 1500 feet AGL
Weather: -SHRA  (light rain showers)

METAR text: ROAH 140400Z 22008KT 9999 R18L/P2000N R18R/0750VP2000U SHRA FEW010 SCT015 30/27 Q1008
Conditions at: ROAH (NAHA (CIV/JASDF), JP) observed 0400 UTC 14 July 2020
Temperature: 30.0°C (86°F)
Dewpoint: 27.0°C (81°F) [RH = 84%]
Pressure (altimeter): 29.76 inches Hg (1008.0 mb)
Winds: from the SW (220 degrees) at 9 MPH (8 knots; 4.1 m/s)
Visibility: 6 or more miles (10+ km)
Ceiling: at least 12,000 feet AGL
Clouds: few clouds at 1000 feet AGL
scattered clouds at 1500 feet AGL
Weather: SHRA  (rain showers)

METAR text: ROAH 140330Z 23010KT 9999 VCSH SCT015 SCT/// 32/27 Q1008 RMK 3CU015 A2977
Conditions at: ROAH (NAHA (CIV/JASDF), JP) observed 0330 UTC 14 July 2020
Temperature: 32.0°C (90°F)
Dewpoint: 27.0°C (81°F) [RH = 75%]
Pressure (altimeter): 29.76 inches Hg (1008.0 mb)
Winds: from the SW (230 degrees) at 12 MPH (10 knots; 5.1 m/s)
Visibility: 6 or more miles (10+ km)
Ceiling: at least 12,000 feet AGL
Clouds: scattered clouds at 1500 feet AGL
Weather: VCSH  (showers in vicinity)

METAR text: ROAH 140300Z 23009KT 9999 VCSH FEW015 BKN/// 32/28 Q1008
Conditions at: ROAH (NAHA (CIV/JASDF), JP) observed 0300 UTC 14 July 2020
Temperature: 32.0°C (90°F)
Dewpoint: 28.0°C (82°F) [RH = 80%]
Pressure (altimeter): 29.76 inches Hg (1008.0 mb)
Winds: from the SW (230 degrees) at 10 MPH (9 knots; 4.6 m/s)
Visibility: 6 or more miles (10+ km)
Ceiling: at least 12,000 feet AGL
Clouds: few clouds at 1500 feet AGL
Weather: VCSH  (showers in vicinity)

METAR text: ROAH 140230Z 23007KT 9999 FEW015 BKN/// 32/27 Q1008 RMK 2CU015 A2979
Conditions at: ROAH (NAHA (CIV/JASDF), JP) observed 0230 UTC 14 July 2020
Temperature: 32.0°C (90°F)
Dewpoint: 27.0°C (81°F) [RH = 75%]
Pressure (altimeter): 29.76 inches Hg (1008.0 mb)
Winds: from the SW (230 degrees) at 8 MPH (7 knots; 3.6 m/s)
Visibility: 6 or more miles (10+ km)
Ceiling: at least 12,000 feet AGL
Clouds: few clouds at 1500 feet AGL
Weather: no significant weather observed at this time

METAR text: ROAH 140200Z 23008KT 9999 SCT015 SCT/// 32/28 Q1008
Conditions at: ROAH (NAHA (CIV/JASDF), JP) observed 0200 UTC 14 July 2020
Temperature: 32.0°C (90°F)
Dewpoint: 28.0°C (82°F) [RH = 80%]
Pressure (altimeter): 29.76 inches Hg (1008.0 mb)
Winds: from the SW (230 degrees) at 9 MPH (8 knots; 4.1 m/s)
Visibility: 6 or more miles (10+ km)
Ceiling: at least 12,000 feet AGL
Clouds: scattered clouds at 1500 feet AGL
Weather: no significant weather observed at this time

METAR text: ROAH 140130Z 22008KT 9999 SCT014 SCT/// 32/28 Q1008
Conditions at: ROAH (NAHA (CIV/JASDF), JP) observed 0130 UTC 14 July 2020
Temperature: 32.0°C (90°F)
Dewpoint: 28.0°C (82°F) [RH = 80%]
Pressure (altimeter): 29.76 inches Hg (1008.0 mb)
Winds: from the SW (220 degrees) at 9 MPH (8 knots; 4.1 m/s)
Visibility: 6 or more miles (10+ km)
Ceiling: at least 12,000 feet AGL
Clouds: scattered clouds at 1400 feet AGL
Weather: no significant weather observed at this time

Forecast for: ROAH (NAHA (CIV/JASDF), JP)
Text: TAF ROAH 151106Z 1512/1618 20015KT 9999 FEW010 SCT020
Forecast period: 1200 UTC 15 July 2020 to 1800 UTC 16 July 2020
Forecast type: FROM: standard forecast or significant change
Winds: from the SSW (200 degrees) at 17 MPH (15 knots; 7.7 m/s)
Visibility: 6 or more miles 10+ km)
Ceiling: at least 12,000 feet AGL
Clouds: few clouds at 1000 feet AGL
scattered clouds at 2000 feet AGL
Weather: no significant weather forecast for this period
Text: TEMPO 1606/1609 3000 +TSRA SCT008 BKN015 SCT020CB
Forecast period: 0600 to 0900 UTC 16 July 2020
Forecast type: TEMPORARY: The following changes expected for less than half the time period
Visibility: 1.86 miles (2.99 km)
Ceiling: 1500 feet AGL
Clouds: scattered clouds at 800 feet AGL
broken clouds at 1500 feet AGL
scattered clouds at 2000 feet AGL
Weather: +TSRA  (heavy rain associated with thunderstorm(s))